sensor_id;sensor_type;location;lat;lon;timestamp;P1;durP1;ratioP1;P2;durP2;ratioP2
51614;SDS011;37695;52.960;6.188;2024-02-23T00:02:19;2.35;;;0.10;;
51614;SDS011;37695;52.960;6.188;2024-02-23T00:04:45;1.42;;;0.10;;
51614;SDS011;37695;52.960;6.188;2024-02-23T00:07:11;0.65;;;0.08;;
51614;SDS011;37695;52.960;6.188;2024-02-23T00:09:36;0.90;;;0.10;;
51614;SDS011;37695;52.960;6.188;2024-02-23T00:12:03;1.55;;;0.13;;
51614;SDS011;37695;52.960;6.188;2024-02-23T00:14:31;1.33;;;0.10;;
51614;SDS011;37695;52.960;6.188;2024-02-23T00:16:57;0.75;;;0.00;;
51614;SDS011;37695;52.960;6.188;2024-02-23T00:19:24;1.13;;;0.10;;
51614;SDS011;37695;52.960;6.188;2024-02-23T00:21:50;0.93;;;0.08;;
51614;SDS011;37695;52.960;6.188;2024-02-23T00:24:17;1.42;;;0.10;;
51614;SDS011;37695;52.960;6.188;2024-02-23T00:26:45;1.65;;;0.00;;
51614;SDS011;37695;52.960;6.188;2024-02-23T00:29:12;1.13;;;0.00;;
51614;SDS011;37695;52.960;6.188;2024-02-23T00:31:38;2.53;;;0.10;;
51614;SDS011;37695;52.960;6.188;2024-02-23T00:34:06;1.85;;;0.15;;
51614;SDS011;37695;52.960;6.188;2024-02-23T00:36:35;3.97;;;0.20;;
51614;SDS011;37695;52.960;6.188;2024-02-23T00:39:02;1.92;;;0.00;;
51614;SDS011;37695;52.960;6.188;2024-02-23T00:41:28;2.22;;;0.20;;
51614;SDS011;37695;52.960;6.188;2024-02-23T00:43:54;3.38;;;0.30;;
51614;SDS011;37695;52.960;6.188;2024-02-23T00:46:20;2.30;;;0.28;;
51614;SDS011;37695;52.960;6.188;2024-02-23T00:48:46;1.23;;;0.65;;
51614;SDS011;37695;52.960;6.188;2024-02-23T00:51:12;1.83;;;0.10;;
51614;SDS011;37695;52.960;6.188;2024-02-23T00:53:38;1.20;;;0.30;;
51614;SDS011;37695;52.960;6.188;2024-02-23T00:56:04;1.25;;;0.10;;
51614;SDS011;37695;52.960;6.188;2024-02-23T00:58:30;0.68;;;0.10;;
51614;SDS011;37695;52.960;6.188;2024-02-23T01:00:56;0.60;;;0.17;;
51614;SDS011;37695;52.960;6.188;2024-02-23T01:03:22;2.17;;;0.03;;
51614;SDS011;37695;52.960;6.188;2024-02-23T01:05:48;3.72;;;0.20;;
51614;SDS011;37695;52.960;6.188;2024-02-23T01:08:14;3.65;;;0.30;;
51614;SDS011;37695;52.960;6.188;2024-02-23T01:10:40;2.35;;;0.20;;
51614;SDS011;37695;52.960;6.188;2024-02-23T01:13:06;2.40;;;0.30;;
51614;SDS011;37695;52.960;6.188;2024-02-23T01:15:32;3.95;;;0.40;;
51614;SDS011;37695;52.960;6.188;2024-02-23T01:17:59;4.85;;;0.30;;
51614;SDS011;37695;52.960;6.188;2024-02-23T01:20:25;4.13;;;0.60;;
51614;SDS011;37695;52.960;6.188;2024-02-23T01:22:51;3.63;;;0.30;;
51614;SDS011;37695;52.960;6.188;2024-02-23T01:25:17;5.20;;;0.38;;
51614;SDS011;37695;52.960;6.188;2024-02-23T01:27:43;4.07;;;0.75;;
51614;SDS011;37695;52.960;6.188;2024-02-23T01:30:09;5.30;;;0.50;;
51614;SDS011;37695;52.960;6.188;2024-02-23T01:32:36;7.07;;;1.05;;
51614;SDS011;37695;52.960;6.188;2024-02-23T01:35:03;3.72;;;0.20;;
51614;SDS011;37695;52.960;6.188;2024-02-23T01:37:33;2.80;;;0.30;;
51614;SDS011;37695;52.960;6.188;2024-02-23T01:39:59;6.10;;;0.43;;
51614;SDS011;37695;52.960;6.188;2024-02-23T01:42:25;7.03;;;0.55;;
51614;SDS011;37695;52.960;6.188;2024-02-23T01:44:51;6.38;;;0.52;;
51614;SDS011;37695;52.960;6.188;2024-02-23T01:47:18;5.65;;;0.82;;
51614;SDS011;37695;52.960;6.188;2024-02-23T01:49:47;6.55;;;0.40;;
51614;SDS011;37695;52.960;6.188;2024-02-23T01:52:13;6.95;;;0.73;;
51614;SDS011;37695;52.960;6.188;2024-02-23T01:54:40;9.40;;;1.95;;
51614;SDS011;37695;52.960;6.188;2024-02-23T01:57:06;12.25;;;1.38;;
51614;SDS011;37695;52.960;6.188;2024-02-23T01:59:33;3.72;;;0.52;;
51614;SDS011;37695;52.960;6.188;2024-02-23T02:02:02;6.80;;;0.93;;
51614;SDS011;37695;52.960;6.188;2024-02-23T02:04:28;4.55;;;0.40;;
51614;SDS011;37695;52.960;6.188;2024-02-23T02:06:54;5.07;;;0.30;;
51614;SDS011;37695;52.960;6.188;2024-02-23T02:09:21;3.28;;;0.32;;
51614;SDS011;37695;52.960;6.188;2024-02-23T02:11:50;5.25;;;0.40;;
51614;SDS011;37695;52.960;6.188;2024-02-23T02:14:16;3.67;;;0.50;;
51614;SDS011;37695;52.960;6.188;2024-02-23T02:16:42;5.88;;;0.45;;
51614;SDS011;37695;52.960;6.188;2024-02-23T02:19:11;5.05;;;0.47;;
51614;SDS011;37695;52.960;6.188;2024-02-23T02:21:38;2.72;;;0.25;;
51614;SDS011;37695;52.960;6.188;2024-02-23T02:24:04;4.45;;;0.60;;
51614;SDS011;37695;52.960;6.188;2024-02-23T02:26:31;3.65;;;0.50;;
51614;SDS011;37695;52.960;6.188;2024-02-23T02:28:57;5.13;;;0.70;;
51614;SDS011;37695;52.960;6.188;2024-02-23T02:31:23;3.60;;;0.45;;
51614;SDS011;37695;52.960;6.188;2024-02-23T02:33:49;7.97;;;0.90;;
51614;SDS011;37695;52.960;6.188;2024-02-23T02:36:15;5.13;;;0.60;;
51614;SDS011;37695;52.960;6.188;2024-02-23T02:38:41;4.25;;;0.30;;
51614;SDS011;37695;52.960;6.188;2024-02-23T02:41:08;7.45;;;0.93;;
51614;SDS011;37695;52.960;6.188;2024-02-23T02:43:33;6.57;;;1.02;;
51614;SDS011;37695;52.960;6.188;2024-02-23T02:45:59;7.80;;;0.55;;
51614;SDS011;37695;52.960;6.188;2024-02-23T02:48:25;4.63;;;0.52;;
51614;SDS011;37695;52.960;6.188;2024-02-23T02:50:51;8.93;;;0.77;;
51614;SDS011;37695;52.960;6.188;2024-02-23T02:53:18;3.17;;;0.30;;
51614;SDS011;37695;52.960;6.188;2024-02-23T02:55:44;4.15;;;0.40;;
51614;SDS011;37695;52.960;6.188;2024-02-23T02:58:13;4.35;;;0.50;;
51614;SDS011;37695;52.960;6.188;2024-02-23T03:00:39;2.88;;;0.55;;
51614;SDS011;37695;52.960;6.188;2024-02-23T03:03:05;8.18;;;0.30;;
51614;SDS011;37695;52.960;6.188;2024-02-23T03:05:32;4.35;;;0.40;;
51614;SDS011;37695;52.960;6.188;2024-02-23T03:07:58;7.05;;;0.57;;
51614;SDS011;37695;52.960;6.188;2024-02-23T03:10:24;6.60;;;0.50;;
51614;SDS011;37695;52.960;6.188;2024-02-23T03:12:50;4.43;;;0.40;;
51614;SDS011;37695;52.960;6.188;2024-02-23T03:15:16;5.32;;;0.30;;
51614;SDS011;37695;52.960;6.188;2024-02-23T03:17:42;5.57;;;0.30;;
51614;SDS011;37695;52.960;6.188;2024-02-23T03:20:08;2.10;;;0.30;;
51614;SDS011;37695;52.960;6.188;2024-02-23T03:22:35;3.47;;;0.10;;
51614;SDS011;37695;52.960;6.188;2024-02-23T03:25:01;5.03;;;0.40;;
51614;SDS011;37695;52.960;6.188;2024-02-23T03:27:33;3.65;;;0.17;;
51614;SDS011;37695;52.960;6.188;2024-02-23T03:30:01;5.60;;;0.43;;
51614;SDS011;37695;52.960;6.188;2024-02-23T03:32:27;7.18;;;0.43;;
51614;SDS011;37695;52.960;6.188;2024-02-23T03:34:54;3.80;;;0.28;;
51614;SDS011;37695;52.960;6.188;2024-02-23T03:37:20;8.13;;;0.47;;
51614;SDS011;37695;52.960;6.188;2024-02-23T03:39:46;5.28;;;0.20;;
51614;SDS011;37695;52.960;6.188;2024-02-23T03:42:13;5.20;;;0.57;;
51614;SDS011;37695;52.960;6.188;2024-02-23T03:44:39;8.80;;;0.50;;
51614;SDS011;37695;52.960;6.188;2024-02-23T03:47:07;4.28;;;0.50;;
51614;SDS011;37695;52.960;6.188;2024-02-23T03:49:33;2.72;;;0.10;;
51614;SDS011;37695;52.960;6.188;2024-02-23T03:51:59;7.10;;;0.40;;
51614;SDS011;37695;52.960;6.188;2024-02-23T03:54:25;6.38;;;0.30;;
51614;SDS011;37695;52.960;6.188;2024-02-23T03:56:51;6.47;;;0.40;;
51614;SDS011;37695;52.960;6.188;2024-02-23T03:59:17;4.53;;;0.45;;
51614;SDS011;37695;52.960;6.188;2024-02-23T04:01:43;3.67;;;0.32;;
51614;SDS011;37695;52.960;6.188;2024-02-23T04:04:09;4.70;;;0.40;;
51614;SDS011;37695;52.960;6.188;2024-02-23T04:06:35;3.13;;;0.30;;
51614;SDS011;37695;52.960;6.188;2024-02-23T04:09:02;6.60;;;0.77;;
51614;SDS011;37695;52.960;6.188;2024-02-23T04:11:32;3.13;;;0.30;;
51614;SDS011;37695;52.960;6.188;2024-02-23T04:13:58;3.42;;;0.45;;
51614;SDS011;37695;52.960;6.188;2024-02-23T04:16:25;2.90;;;0.20;;
51614;SDS011;37695;52.960;6.188;2024-02-23T04:18:52;5.68;;;0.30;;
51614;SDS011;37695;52.960;6.188;2024-02-23T04:21:18;4.90;;;0.20;;
51614;SDS011;37695;52.960;6.188;2024-02-23T04:23:44;5.47;;;0.65;;
51614;SDS011;37695;52.960;6.188;2024-02-23T04:26:10;3.63;;;0.32;;
51614;SDS011;37695;52.960;6.188;2024-02-23T04:28:40;3.33;;;0.98;;
51614;SDS011;37695;52.960;6.188;2024-02-23T04:31:07;2.63;;;0.20;;
51614;SDS011;37695;52.960;6.188;2024-02-23T04:33:34;5.85;;;0.50;;
51614;SDS011;37695;52.960;6.188;2024-02-23T04:36:00;5.40;;;0.30;;
51614;SDS011;37695;52.960;6.188;2024-02-23T04:38:28;5.00;;;0.50;;
51614;SDS011;37695;52.960;6.188;2024-02-23T04:40:54;3.45;;;0.68;;
51614;SDS011;37695;52.960;6.188;2024-02-23T04:43:21;4.22;;;0.50;;
51614;SDS011;37695;52.960;6.188;2024-02-23T04:45:48;3.22;;;0.20;;
51614;SDS011;37695;52.960;6.188;2024-02-23T04:48:14;5.05;;;0.47;;
51614;SDS011;37695;52.960;6.188;2024-02-23T04:50:40;3.85;;;0.20;;
51614;SDS011;37695;52.960;6.188;2024-02-23T04:53:06;9.18;;;0.52;;
51614;SDS011;37695;52.960;6.188;2024-02-23T04:55:33;9.15;;;1.00;;
51614;SDS011;37695;52.960;6.188;2024-02-23T04:57:59;4.95;;;0.20;;
51614;SDS011;37695;52.960;6.188;2024-02-23T05:00:25;5.60;;;0.28;;
51614;SDS011;37695;52.960;6.188;2024-02-23T05:02:57;4.63;;;0.20;;
51614;SDS011;37695;52.960;6.188;2024-02-23T05:05:23;2.13;;;0.13;;
51614;SDS011;37695;52.960;6.188;2024-02-23T05:07:49;1.65;;;0.10;;
51614;SDS011;37695;52.960;6.188;2024-02-23T05:10:15;5.47;;;0.30;;
51614;SDS011;37695;52.960;6.188;2024-02-23T05:12:42;4.07;;;0.22;;
51614;SDS011;37695;52.960;6.188;2024-02-23T05:15:08;4.22;;;1.08;;
51614;SDS011;37695;52.960;6.188;2024-02-23T05:17:34;4.53;;;0.68;;
51614;SDS011;37695;52.960;6.188;2024-02-23T05:20:00;5.07;;;0.40;;
51614;SDS011;37695;52.960;6.188;2024-02-23T05:22:32;4.10;;;0.77;;
51614;SDS011;37695;52.960;6.188;2024-02-23T05:24:58;5.00;;;0.47;;
51614;SDS011;37695;52.960;6.188;2024-02-23T05:27:24;6.40;;;0.60;;
51614;SDS011;37695;52.960;6.188;2024-02-23T05:29:52;8.18;;;0.70;;
51614;SDS011;37695;52.960;6.188;2024-02-23T05:32:18;2.00;;;0.50;;
51614;SDS011;37695;52.960;6.188;2024-02-23T05:34:44;6.78;;;0.93;;
51614;SDS011;37695;52.960;6.188;2024-02-23T05:37:10;5.72;;;0.93;;
51614;SDS011;37695;52.960;6.188;2024-02-23T05:39:36;5.18;;;1.10;;
51614;SDS011;37695;52.960;6.188;2024-02-23T05:42:05;5.80;;;1.17;;
51614;SDS011;37695;52.960;6.188;2024-02-23T05:44:31;5.43;;;1.17;;
51614;SDS011;37695;52.960;6.188;2024-02-23T05:46:57;4.32;;;1.10;;
51614;SDS011;37695;52.960;6.188;2024-02-23T05:49:23;7.95;;;1.45;;
51614;SDS011;37695;52.960;6.188;2024-02-23T05:51:49;8.15;;;1.60;;
51614;SDS011;37695;52.960;6.188;2024-02-23T05:54:15;4.63;;;1.10;;
51614;SDS011;37695;52.960;6.188;2024-02-23T05:56:41;4.38;;;1.42;;
51614;SDS011;37695;52.960;6.188;2024-02-23T05:59:10;5.18;;;1.55;;
51614;SDS011;37695;52.960;6.188;2024-02-23T06:01:36;4.40;;;1.77;;
51614;SDS011;37695;52.960;6.188;2024-02-23T06:04:02;5.47;;;1.50;;
51614;SDS011;37695;52.960;6.188;2024-02-23T06:06:28;5.32;;;1.90;;
51614;SDS011;37695;52.960;6.188;2024-02-23T06:08:54;5.55;;;1.40;;
51614;SDS011;37695;52.960;6.188;2024-02-23T06:11:20;6.10;;;1.50;;
51614;SDS011;37695;52.960;6.188;2024-02-23T06:13:47;7.95;;;1.30;;
51614;SDS011;37695;52.960;6.188;2024-02-23T06:16:13;7.22;;;1.38;;
51614;SDS011;37695;52.960;6.188;2024-02-23T06:18:39;7.68;;;1.50;;
51614;SDS011;37695;52.960;6.188;2024-02-23T06:21:13;5.65;;;1.20;;
51614;SDS011;37695;52.960;6.188;2024-02-23T06:23:39;7.70;;;1.85;;
51614;SDS011;37695;52.960;6.188;2024-02-23T06:26:05;7.70;;;1.33;;
51614;SDS011;37695;52.960;6.188;2024-02-23T06:28:31;7.10;;;1.65;;
51614;SDS011;37695;52.960;6.188;2024-02-23T06:30:58;5.50;;;1.83;;
51614;SDS011;37695;52.960;6.188;2024-02-23T06:33:24;5.70;;;1.45;;
51614;SDS011;37695;52.960;6.188;2024-02-23T06:35:50;8.52;;;1.95;;
51614;SDS011;37695;52.960;6.188;2024-02-23T06:38:17;5.43;;;1.30;;
51614;SDS011;37695;52.960;6.188;2024-02-23T06:40:43;7.65;;;1.90;;
51614;SDS011;37695;52.960;6.188;2024-02-23T06:43:09;9.57;;;1.88;;
51614;SDS011;37695;52.960;6.188;2024-02-23T06:45:35;5.15;;;1.70;;
51614;SDS011;37695;52.960;6.188;2024-02-23T06:48:01;5.18;;;2.05;;
51614;SDS011;37695;52.960;6.188;2024-02-23T06:50:28;6.55;;;1.92;;
51614;SDS011;37695;52.960;6.188;2024-02-23T06:52:54;6.78;;;2.28;;
51614;SDS011;37695;52.960;6.188;2024-02-23T06:55:20;8.60;;;1.98;;
51614;SDS011;37695;52.960;6.188;2024-02-23T06:57:46;6.53;;;1.98;;
51614;SDS011;37695;52.960;6.188;2024-02-23T07:00:12;8.60;;;2.05;;
51614;SDS011;37695;52.960;6.188;2024-02-23T07:02:38;8.90;;;1.80;;
51614;SDS011;37695;52.960;6.188;2024-02-23T07:05:05;7.78;;;1.60;;
51614;SDS011;37695;52.960;6.188;2024-02-23T07:07:31;5.95;;;1.80;;
51614;SDS011;37695;52.960;6.188;2024-02-23T07:09:58;8.20;;;1.77;;
51614;SDS011;37695;52.960;6.188;2024-02-23T07:12:24;7.13;;;1.65;;
51614;SDS011;37695;52.960;6.188;2024-02-23T07:14:53;6.10;;;1.73;;
51614;SDS011;37695;52.960;6.188;2024-02-23T07:17:20;3.47;;;1.33;;
51614;SDS011;37695;52.960;6.188;2024-02-23T07:19:46;6.20;;;1.73;;
51614;SDS011;37695;52.960;6.188;2024-02-23T07:22:12;10.95;;;2.30;;
51614;SDS011;37695;52.960;6.188;2024-02-23T07:24:41;4.95;;;1.50;;
51614;SDS011;37695;52.960;6.188;2024-02-23T07:27:08;5.13;;;1.50;;
51614;SDS011;37695;52.960;6.188;2024-02-23T07:29:34;4.47;;;1.80;;
51614;SDS011;37695;52.960;6.188;2024-02-23T07:32:02;3.67;;;1.35;;
51614;SDS011;37695;52.960;6.188;2024-02-23T07:34:28;5.15;;;1.58;;
51614;SDS011;37695;52.960;6.188;2024-02-23T07:36:54;7.00;;;1.85;;
51614;SDS011;37695;52.960;6.188;2024-02-23T07:39:20;3.47;;;1.70;;
51614;SDS011;37695;52.960;6.188;2024-02-23T07:41:47;6.35;;;1.67;;
51614;SDS011;37695;52.960;6.188;2024-02-23T07:44:13;6.38;;;1.65;;
51614;SDS011;37695;52.960;6.188;2024-02-23T07:46:39;3.50;;;1.42;;
51614;SDS011;37695;52.960;6.188;2024-02-23T07:49:06;4.03;;;1.40;;
51614;SDS011;37695;52.960;6.188;2024-02-23T07:51:32;6.90;;;1.30;;
51614;SDS011;37695;52.960;6.188;2024-02-23T07:53:58;5.68;;;1.20;;
51614;SDS011;37695;52.960;6.188;2024-02-23T07:56:24;4.53;;;1.40;;
51614;SDS011;37695;52.960;6.188;2024-02-23T07:58:50;5.93;;;1.23;;
51614;SDS011;37695;52.960;6.188;2024-02-23T08:01:17;6.50;;;1.30;;
51614;SDS011;37695;52.960;6.188;2024-02-23T08:03:43;4.38;;;1.30;;
51614;SDS011;37695;52.960;6.188;2024-02-23T08:06:09;2.67;;;1.00;;
51614;SDS011;37695;52.960;6.188;2024-02-23T08:08:35;5.50;;;1.08;;
51614;SDS011;37695;52.960;6.188;2024-02-23T08:11:01;3.90;;;0.80;;
51614;SDS011;37695;52.960;6.188;2024-02-23T08:13:28;4.35;;;0.93;;
51614;SDS011;37695;52.960;6.188;2024-02-23T08:15:54;2.83;;;0.80;;
51614;SDS011;37695;52.960;6.188;2024-02-23T08:18:20;2.40;;;0.82;;
51614;SDS011;37695;52.960;6.188;2024-02-23T08:20:47;4.00;;;0.77;;
51614;SDS011;37695;52.960;6.188;2024-02-23T08:23:13;4.63;;;1.23;;
51614;SDS011;37695;52.960;6.188;2024-02-23T08:25:40;3.78;;;0.80;;
51614;SDS011;37695;52.960;6.188;2024-02-23T08:28:07;5.78;;;0.70;;
51614;SDS011;37695;52.960;6.188;2024-02-23T08:30:33;3.67;;;0.50;;
51614;SDS011;37695;52.960;6.188;2024-02-23T08:32:59;3.35;;;0.93;;
51614;SDS011;37695;52.960;6.188;2024-02-23T08:35:25;2.05;;;0.77;;
51614;SDS011;37695;52.960;6.188;2024-02-23T08:37:51;1.73;;;0.90;;
51614;SDS011;37695;52.960;6.188;2024-02-23T08:40:17;2.58;;;0.40;;
51614;SDS011;37695;52.960;6.188;2024-02-23T08:42:43;2.53;;;0.60;;
51614;SDS011;37695;52.960;6.188;2024-02-23T08:45:10;2.25;;;0.40;;
51614;SDS011;37695;52.960;6.188;2024-02-23T08:47:39;2.63;;;0.60;;
51614;SDS011;37695;52.960;6.188;2024-02-23T08:50:05;2.85;;;0.50;;
51614;SDS011;37695;52.960;6.188;2024-02-23T08:52:32;4.28;;;0.73;;
51614;SDS011;37695;52.960;6.188;2024-02-23T08:54:58;2.78;;;0.50;;
51614;SDS011;37695;52.960;6.188;2024-02-23T08:57:25;4.68;;;0.50;;
51614;SDS011;37695;52.960;6.188;2024-02-23T08:59:51;3.47;;;0.40;;
51614;SDS011;37695;52.960;6.188;2024-02-23T09:02:17;2.60;;;0.47;;
51614;SDS011;37695;52.960;6.188;2024-02-23T09:04:44;3.28;;;0.63;;
51614;SDS011;37695;52.960;6.188;2024-02-23T09:07:11;2.42;;;0.30;;
51614;SDS011;37695;52.960;6.188;2024-02-23T09:09:37;2.03;;;0.30;;
51614;SDS011;37695;52.960;6.188;2024-02-23T09:12:03;5.82;;;1.10;;
51614;SDS011;37695;52.960;6.188;2024-02-23T09:14:31;3.60;;;0.35;;
51614;SDS011;37695;52.960;6.188;2024-02-23T09:16:58;5.28;;;0.80;;
51614;SDS011;37695;52.960;6.188;2024-02-23T09:19:24;1.58;;;0.20;;
51614;SDS011;37695;52.960;6.188;2024-02-23T09:21:50;6.45;;;0.70;;
51614;SDS011;37695;52.960;6.188;2024-02-23T09:24:16;4.03;;;0.40;;
51614;SDS011;37695;52.960;6.188;2024-02-23T09:26:45;5.72;;;0.40;;
51614;SDS011;37695;52.960;6.188;2024-02-23T09:29:12;5.03;;;0.60;;
51614;SDS011;37695;52.960;6.188;2024-02-23T09:31:38;6.05;;;0.82;;
51614;SDS011;37695;52.960;6.188;2024-02-23T09:34:04;2.42;;;0.17;;
51614;SDS011;37695;52.960;6.188;2024-02-23T09:36:30;1.77;;;0.63;;
51614;SDS011;37695;52.960;6.188;2024-02-23T09:38:56;3.35;;;0.57;;
51614;SDS011;37695;52.960;6.188;2024-02-23T09:41:23;2.75;;;0.35;;
51614;SDS011;37695;52.960;6.188;2024-02-23T09:43:49;4.57;;;0.40;;
51614;SDS011;37695;52.960;6.188;2024-02-23T09:46:16;5.20;;;0.20;;
51614;SDS011;37695;52.960;6.188;2024-02-23T09:48:45;2.13;;;0.57;;
51614;SDS011;37695;52.960;6.188;2024-02-23T09:51:11;4.25;;;0.50;;
51614;SDS011;37695;52.960;6.188;2024-02-23T09:53:38;5.68;;;0.52;;
51614;SDS011;37695;52.960;6.188;2024-02-23T09:56:04;1.42;;;0.20;;
51614;SDS011;37695;52.960;6.188;2024-02-23T09:58:31;2.65;;;0.30;;
51614;SDS011;37695;52.960;6.188;2024-02-23T10:00:58;3.55;;;0.20;;
51614;SDS011;37695;52.960;6.188;2024-02-23T10:03:28;3.28;;;0.40;;
51614;SDS011;37695;52.960;6.188;2024-02-23T10:05:55;4.40;;;0.28;;
51614;SDS011;37695;52.960;6.188;2024-02-23T10:08:21;3.00;;;0.40;;
51614;SDS011;37695;52.960;6.188;2024-02-23T10:10:47;4.72;;;0.70;;
51614;SDS011;37695;52.960;6.188;2024-02-23T10:13:20;5.55;;;0.40;;
51614;SDS011;37695;52.960;6.188;2024-02-23T10:15:49;2.90;;;0.35;;
51614;SDS011;37695;52.960;6.188;2024-02-23T10:18:16;5.97;;;0.63;;
51614;SDS011;37695;52.960;6.188;2024-02-23T10:20:42;3.95;;;0.47;;
51614;SDS011;37695;52.960;6.188;2024-02-23T10:23:08;2.55;;;0.40;;
51614;SDS011;37695;52.960;6.188;2024-02-23T10:25:35;3.95;;;0.28;;
51614;SDS011;37695;52.960;6.188;2024-02-23T10:28:10;2.47;;;0.55;;
51614;SDS011;37695;52.960;6.188;2024-02-23T10:30:36;1.95;;;0.30;;
51614;SDS011;37695;52.960;6.188;2024-02-23T10:33:06;3.25;;;0.40;;
51614;SDS011;37695;52.960;6.188;2024-02-23T10:35:33;2.53;;;0.30;;
51614;SDS011;37695;52.960;6.188;2024-02-23T10:38:05;2.50;;;0.10;;
51614;SDS011;37695;52.960;6.188;2024-02-23T10:40:34;3.22;;;0.30;;
51614;SDS011;37695;52.960;6.188;2024-02-23T10:45:31;2.65;;;0.30;;
51614;SDS011;37695;52.960;6.188;2024-02-23T10:47:58;1.70;;;0.13;;
51614;SDS011;37695;52.960;6.188;2024-02-23T10:50:25;2.72;;;0.20;;
51614;SDS011;37695;52.960;6.188;2024-02-23T10:52:51;6.05;;;0.45;;
51614;SDS011;37695;52.960;6.188;2024-02-23T10:55:18;2.47;;;0.30;;
51614;SDS011;37695;52.960;6.188;2024-02-23T10:57:44;3.35;;;0.30;;
51614;SDS011;37695;52.960;6.188;2024-02-23T11:00:11;2.08;;;0.22;;
51614;SDS011;37695;52.960;6.188;2024-02-23T11:02:39;4.25;;;0.20;;
51614;SDS011;37695;52.960;6.188;2024-02-23T11:05:06;1.90;;;0.20;;
51614;SDS011;37695;52.960;6.188;2024-02-23T11:07:37;4.25;;;0.30;;
51614;SDS011;37695;52.960;6.188;2024-02-23T11:10:04;2.97;;;0.20;;
51614;SDS011;37695;52.960;6.188;2024-02-23T11:12:30;8.15;;;0.50;;
51614;SDS011;37695;52.960;6.188;2024-02-23T11:14:57;4.75;;;0.40;;
51614;SDS011;37695;52.960;6.188;2024-02-23T11:17:25;2.78;;;0.30;;
51614;SDS011;37695;52.960;6.188;2024-02-23T11:19:53;3.53;;;0.30;;
51614;SDS011;37695;52.960;6.188;2024-02-23T11:22:23;7.97;;;0.82;;
51614;SDS011;37695;52.960;6.188;2024-02-23T11:24:51;1.85;;;0.13;;
51614;SDS011;37695;52.960;6.188;2024-02-23T11:27:17;3.95;;;0.28;;
51614;SDS011;37695;52.960;6.188;2024-02-23T11:29:44;5.18;;;0.75;;
51614;SDS011;37695;52.960;6.188;2024-02-23T11:32:17;2.80;;;0.30;;
51614;SDS011;37695;52.960;6.188;2024-02-23T11:34:55;2.15;;;0.30;;
51614;SDS011;37695;52.960;6.188;2024-02-23T11:37:28;2.33;;;0.43;;
51614;SDS011;37695;52.960;6.188;2024-02-23T11:39:58;2.15;;;0.30;;
51614;SDS011;37695;52.960;6.188;2024-02-23T11:42:24;13.45;;;0.65;;
51614;SDS011;37695;52.960;6.188;2024-02-23T11:44:52;4.50;;;0.57;;
51614;SDS011;37695;52.960;6.188;2024-02-23T11:47:19;3.85;;;0.57;;
51614;SDS011;37695;52.960;6.188;2024-02-23T11:49:45;2.97;;;0.32;;
51614;SDS011;37695;52.960;6.188;2024-02-23T11:52:11;3.60;;;0.60;;
51614;SDS011;37695;52.960;6.188;2024-02-23T11:54:37;1.48;;;0.20;;
51614;SDS011;37695;52.960;6.188;2024-02-23T11:57:03;1.27;;;0.40;;
51614;SDS011;37695;52.960;6.188;2024-02-23T11:59:29;1.65;;;0.40;;
51614;SDS011;37695;52.960;6.188;2024-02-23T12:01:55;3.17;;;0.50;;
51614;SDS011;37695;52.960;6.188;2024-02-23T12:04:21;1.98;;;0.20;;
51614;SDS011;37695;52.960;6.188;2024-02-23T12:06:47;1.92;;;0.20;;
51614;SDS011;37695;52.960;6.188;2024-02-23T12:09:14;2.08;;;0.30;;
51614;SDS011;37695;52.960;6.188;2024-02-23T12:11:40;1.80;;;0.20;;
51614;SDS011;37695;52.960;6.188;2024-02-23T12:14:07;3.20;;;0.50;;
51614;SDS011;37695;52.960;6.188;2024-02-23T12:16:34;2.53;;;0.30;;
51614;SDS011;37695;52.960;6.188;2024-02-23T12:19:01;3.80;;;0.55;;
51614;SDS011;37695;52.960;6.188;2024-02-23T12:21:33;3.63;;;0.63;;
51614;SDS011;37695;52.960;6.188;2024-02-23T12:24:00;3.33;;;0.73;;
51614;SDS011;37695;52.960;6.188;2024-02-23T12:26:29;3.17;;;0.30;;
51614;SDS011;37695;52.960;6.188;2024-02-23T12:28:59;2.10;;;0.32;;
51614;SDS011;37695;52.960;6.188;2024-02-23T12:31:26;4.95;;;0.70;;
51614;SDS011;37695;52.960;6.188;2024-02-23T12:33:52;3.65;;;0.50;;
51614;SDS011;37695;52.960;6.188;2024-02-23T12:36:18;2.30;;;0.35;;
51614;SDS011;37695;52.960;6.188;2024-02-23T12:38:45;2.55;;;0.28;;
51614;SDS011;37695;52.960;6.188;2024-02-23T12:41:11;3.05;;;0.25;;
51614;SDS011;37695;52.960;6.188;2024-02-23T12:43:37;2.53;;;0.45;;
51614;SDS011;37695;52.960;6.188;2024-02-23T12:46:03;3.75;;;0.45;;
51614;SDS011;37695;52.960;6.188;2024-02-23T12:48:29;5.07;;;0.63;;
51614;SDS011;37695;52.960;6.188;2024-02-23T12:50:55;3.45;;;0.40;;
51614;SDS011;37695;52.960;6.188;2024-02-23T12:53:31;17.65;;;1.30;;
51614;SDS011;37695;52.960;6.188;2024-02-23T12:55:58;2.00;;;0.32;;
51614;SDS011;37695;52.960;6.188;2024-02-23T12:58:25;3.22;;;0.60;;
51614;SDS011;37695;52.960;6.188;2024-02-23T13:00:51;2.05;;;0.30;;
51614;SDS011;37695;52.960;6.188;2024-02-23T13:03:17;1.90;;;0.50;;
51614;SDS011;37695;52.960;6.188;2024-02-23T13:05:43;2.30;;;0.30;;
51614;SDS011;37695;52.960;6.188;2024-02-23T13:08:09;2.25;;;0.52;;
51614;SDS011;37695;52.960;6.188;2024-02-23T13:10:35;4.22;;;0.70;;
51614;SDS011;37695;52.960;6.188;2024-02-23T13:13:01;2.28;;;0.40;;
51614;SDS011;37695;52.960;6.188;2024-02-23T13:15:27;2.92;;;0.60;;
51614;SDS011;37695;52.960;6.188;2024-02-23T13:17:53;2.47;;;0.40;;
51614;SDS011;37695;52.960;6.188;2024-02-23T13:20:19;2.38;;;0.73;;
51614;SDS011;37695;52.960;6.188;2024-02-23T13:22:45;2.00;;;0.30;;
51614;SDS011;37695;52.960;6.188;2024-02-23T13:25:11;3.78;;;0.77;;
51614;SDS011;37695;52.960;6.188;2024-02-23T13:27:37;3.63;;;0.85;;
51614;SDS011;37695;52.960;6.188;2024-02-23T13:30:03;2.88;;;0.60;;
51614;SDS011;37695;52.960;6.188;2024-02-23T13:32:29;3.40;;;0.52;;
51614;SDS011;37695;52.960;6.188;2024-02-23T13:34:56;4.22;;;0.68;;
51614;SDS011;37695;52.960;6.188;2024-02-23T13:37:22;4.72;;;0.55;;
51614;SDS011;37695;52.960;6.188;2024-02-23T13:39:48;4.60;;;0.68;;
51614;SDS011;37695;52.960;6.188;2024-02-23T13:42:14;3.65;;;0.65;;
51614;SDS011;37695;52.960;6.188;2024-02-23T13:44:40;3.90;;;0.50;;
51614;SDS011;37695;52.960;6.188;2024-02-23T13:47:06;2.38;;;0.40;;
51614;SDS011;37695;52.960;6.188;2024-02-23T13:49:32;3.08;;;0.43;;
51614;SDS011;37695;52.960;6.188;2024-02-23T13:51:58;1.80;;;0.47;;
51614;SDS011;37695;52.960;6.188;2024-02-23T13:54:25;1.88;;;0.40;;
51614;SDS011;37695;52.960;6.188;2024-02-23T13:56:51;6.07;;;0.88;;
51614;SDS011;37695;52.960;6.188;2024-02-23T13:59:17;5.32;;;0.60;;
51614;SDS011;37695;52.960;6.188;2024-02-23T14:01:43;2.17;;;0.50;;
51614;SDS011;37695;52.960;6.188;2024-02-23T14:04:10;4.32;;;0.50;;
51614;SDS011;37695;52.960;6.188;2024-02-23T14:06:36;5.00;;;0.80;;
51614;SDS011;37695;52.960;6.188;2024-02-23T14:09:02;3.08;;;0.60;;
51614;SDS011;37695;52.960;6.188;2024-02-23T14:11:29;1.55;;;0.30;;
51614;SDS011;37695;52.960;6.188;2024-02-23T14:13:55;2.67;;;0.57;;
51614;SDS011;37695;52.960;6.188;2024-02-23T14:16:21;3.50;;;0.52;;
51614;SDS011;37695;52.960;6.188;2024-02-23T14:18:48;1.27;;;0.40;;
51614;SDS011;37695;52.960;6.188;2024-02-23T14:21:15;1.83;;;0.50;;
51614;SDS011;37695;52.960;6.188;2024-02-23T14:23:43;2.22;;;0.60;;
51614;SDS011;37695;52.960;6.188;2024-02-23T14:26:09;3.72;;;0.52;;
51614;SDS011;37695;52.960;6.188;2024-02-23T14:28:35;2.80;;;0.65;;
51614;SDS011;37695;52.960;6.188;2024-02-23T14:31:01;2.50;;;0.52;;
51614;SDS011;37695;52.960;6.188;2024-02-23T14:33:27;2.95;;;0.60;;
51614;SDS011;37695;52.960;6.188;2024-02-23T14:35:54;1.67;;;0.40;;
51614;SDS011;37695;52.960;6.188;2024-02-23T14:38:20;2.47;;;0.40;;
51614;SDS011;37695;52.960;6.188;2024-02-23T14:40:46;4.55;;;0.57;;
51614;SDS011;37695;52.960;6.188;2024-02-23T14:43:12;2.58;;;0.25;;
51614;SDS011;37695;52.960;6.188;2024-02-23T14:45:38;1.58;;;0.40;;
51614;SDS011;37695;52.960;6.188;2024-02-23T14:48:05;3.33;;;0.50;;